Time;durP1;ratioP1;P1;durP2;ratioP2;P2;SDS_P1;SDS_P2;PMS_P1;PMS_P2;Temp;Humidity;BMP_temperature;BMP_pressure;BME280_temperature;BME280_humidity;BME280_pressure;Samples;Min_cycle;Max_cycle;Signal;HPM_P1;HPM_P2
2023/04/10 05:02:45;;;;;;;18.00;10.65;;;4.00;99.90;;;;;;5331934;23;20059;-73
2023/04/10 05:05:43;;;;;;;17.08;10.95;;;4.00;99.90;;;;;;4925824;29;20039;-73
2023/04/10 05:08:55;;;;;;;16.27;10.00;;;4.00;99.90;;;;;;4926595;29;20355;-72
2023/04/10 05:12:16;;;;;;;17.02;10.30;;;4.10;99.90;;;;;;4926120;29;20047;-73
2023/04/10 05:16:03;;;;;;;15.38;9.68;;;4.30;99.90;;;;;;4925385;29;20044;-72
2023/04/10 05:18:50;;;;;;;15.25;9.50;;;4.40;99.90;;;;;;4897284;29;20064;-72
2023/04/10 05:22:02;;;;;;;15.02;9.05;;;4.50;99.90;;;;;;4923871;29;20036;-73
2023/04/10 05:24:46;;;;;;;15.38;9.38;;;4.60;99.90;;;;;;4886847;29;20223;-72
2023/04/10 05:27:49;;;;;;;14.63;9.13;;;4.70;99.90;;;;;;4925369;29;20076;-72
2023/04/10 05:30:31;;;;;;;16.27;9.77;;;4.90;99.90;;;;;;4925164;29;20116;-72
2023/04/10 05:33:23;;;;;;;16.55;9.02;;;5.00;99.90;;;;;;4886181;29;20049;-72
2023/04/10 05:36:14;;;;;;;15.15;9.10;;;5.10;99.90;;;;;;4944599;29;20043;-72
2023/04/10 05:39:12;;;;;;;17.58;10.77;;;5.20;99.90;;;;;;4961343;29;20047;-72
2023/04/10 05:41:57;;;;;;;16.83;9.60;;;5.30;99.90;;;;;;4963612;29;20038;-72
2023/04/10 05:44:46;;;;;;;14.48;8.95;;;5.40;99.90;;;;;;4954916;29;20039;-73
2023/04/10 05:47:47;;;;;;;15.45;9.82;;;5.40;99.90;;;;;;4912068;28;20099;-72
2023/04/10 05:50:39;;;;;;;14.45;8.38;;;5.60;99.90;;;;;;4941367;29;20098;-73
2023/04/10 05:53:30;;;;;;;16.63;9.50;;;5.70;99.90;;;;;;4964213;29;20078;-75
2023/04/10 05:56:23;;;;;;;17.98;9.98;;;5.90;99.90;;;;;;4962540;29;20031;-72
2023/04/10 05:59:14;;;;;;;17.77;9.93;;;5.90;99.90;;;;;;4966948;29;20034;-73
2023/04/10 06:02:15;;;;;;;17.30;9.47;;;6.00;99.90;;;;;;4956069;28;20295;-73
2023/04/10 06:04:51;;;;;;;14.80;9.45;;;6.20;99.90;;;;;;4930194;29;20080;-72
2023/04/10 06:07:17;;;;;;;14.02;8.93;;;6.30;99.90;;;;;;4927199;29;20199;-73
2023/04/10 06:10:12;;;;;;;13.57;9.23;;;6.40;99.90;;;;;;4928557;29;20076;-72
2023/04/10 06:12:41;;;;;;;17.90;10.07;;;6.40;99.90;;;;;;4920015;29;20044;-73
2023/04/10 06:15:20;;;;;;;17.00;10.23;;;6.50;99.90;;;;;;4912324;29;20048;-73
2023/04/10 06:17:49;;;;;;;16.33;10.77;;;6.60;99.90;;;;;;4912094;29;20084;-72
2023/04/10 06:20:21;;;;;;;17.40;10.00;;;6.60;99.90;;;;;;4927857;29;20102;-73
2023/04/10 06:22:49;;;;;;;18.73;11.25;;;6.60;99.90;;;;;;4928200;29;20389;-73
2023/04/10 06:25:39;;;;;;;16.15;10.02;;;6.60;99.90;;;;;;4929389;29;20070;-72
2023/04/10 06:28:05;;;;;;;17.40;11.10;;;6.60;99.90;;;;;;4929005;29;20039;-72
2023/04/10 06:30:36;;;;;;;16.08;10.23;;;6.70;99.90;;;;;;4927401;29;20040;-72
2023/04/10 06:33:26;;;;;;;17.48;10.50;;;6.70;99.90;;;;;;4928430;29;20035;-72
2023/04/10 06:35:58;;;;;;;16.73;10.90;;;6.80;99.90;;;;;;4927659;29;20054;-73
2023/04/10 06:38:30;;;;;;;18.65;11.30;;;6.70;99.90;;;;;;4942957;29;20031;-72
2023/04/10 06:41:11;;;;;;;15.48;10.07;;;6.70;99.90;;;;;;4946710;29;20059;-72
2023/04/10 06:43:49;;;;;;;18.10;10.93;;;6.80;99.90;;;;;;4948107;29;20322;-72
2023/04/10 06:46:21;;;;;;;17.17;10.20;;;6.90;99.90;;;;;;4947291;29;20031;-72
2023/04/10 06:48:47;;;;;;;15.00;10.27;;;7.00;99.90;;;;;;4947698;29;20034;-72
2023/04/10 06:51:13;;;;;;;18.65;12.00;;;7.00;99.90;;;;;;4947343;29;20329;-72
2023/04/10 06:53:44;;;;;;;17.25;11.73;;;7.00;99.90;;;;;;4947725;29;20162;-72
2023/04/10 06:56:43;;;;;;;17.35;10.27;;;7.10;99.90;;;;;;4948025;29;20110;-72
2023/04/10 06:59:18;;;;;;;15.80;10.13;;;7.20;99.90;;;;;;4947416;29;20036;-73
2023/04/10 07:02:19;;;;;;;17.80;10.90;;;7.30;99.90;;;;;;4946778;29;20071;-72
2023/04/10 07:04:47;;;;;;;17.10;11.00;;;7.40;99.90;;;;;;4933294;29;20111;-72
2023/04/10 07:07:14;;;;;;;16.05;9.63;;;7.60;99.90;;;;;;4928138;29;20096;-72
2023/04/10 07:09:43;;;;;;;15.20;10.30;;;7.70;99.90;;;;;;4894425;29;20056;-74
2023/04/10 07:12:21;;;;;;;15.93;10.57;;;7.80;99.90;;;;;;4928248;29;20348;-71
2023/04/10 07:14:50;;;;;;;15.23;10.50;;;8.00;99.90;;;;;;4927235;29;20036;-72
2023/04/10 07:17:23;;;;;;;14.52;9.25;;;8.10;99.90;;;;;;4927053;29;20377;-73
2023/04/10 07:19:49;;;;;;;15.32;10.27;;;8.20;99.30;;;;;;4928405;29;20024;-73
2023/04/10 07:22:17;;;;;;;15.18;9.80;;;8.40;99.30;;;;;;4927679;29;20210;-73
2023/04/10 07:24:52;;;;;;;;;;;8.60;98.70;;;;;;4929387;29;20036;-72
2023/04/10 07:27:17;;;;;;;15.48;9.45;;;8.70;98.00;;;;;;4927447;29;19910;-72
2023/04/10 07:29:43;;;;;;;15.93;9.80;;;8.80;97.70;;;;;;4928565;29;20098;-73
2023/04/10 07:32:09;;;;;;;14.48;9.02;;;9.00;97.00;;;;;;4926631;29;20035;-71
2023/04/10 07:34:35;;;;;;;15.57;9.85;;;9.10;96.80;;;;;;4927080;29;20044;-72
2023/04/10 07:37:04;;;;;;;12.27;8.07;;;9.20;96.40;;;;;;4910385;29;20273;-72
2023/04/10 07:39:32;;;;;;;11.82;8.15;;;9.40;96.00;;;;;;4928428;29;20046;-73
2023/04/10 07:42:01;;;;;;;;;;;9.50;95.20;;;;;;4928603;29;20314;-72
2023/04/10 07:44:28;;;;;;;11.45;7.63;;;9.70;95.00;;;;;;4928015;29;19914;-72
2023/04/10 07:46:57;;;;;;;10.73;6.00;;;9.90;94.50;;;;;;4926740;29;20036;-72
2023/04/10 07:49:26;;;;;;;9.10;6.45;;;10.10;92.20;;;;;;4926957;29;20075;-72
2023/04/10 07:51:52;;;;;;;9.57;5.80;;;10.30;91.70;;;;;;4928414;29;20103;-71
2023/04/10 07:54:33;;;;;;;9.95;6.22;;;10.50;90.40;;;;;;4927512;29;20056;-73
2023/04/10 07:57:00;;;;;;;8.43;5.63;;;10.70;90.20;;;;;;4927687;29;20043;-72
2023/04/10 08:00:39;;;;;;;;;;;;;;;;;;;;;
2023/04/10 08:03:07;;;;;;;8.45;5.55;;;11.10;86.10;;;;;;4920748;29;20052;-73
2023/04/10 08:05:33;;;;;;;;;;;11.30;85.60;;;;;;4928088;29;20036;-73
2023/04/10 08:08:01;;;;;;;7.05;4.60;;;11.40;84.60;;;;;;4927621;29;20007;-72
2023/04/10 08:10:27;;;;;;;;;;;11.60;83.90;;;;;;4927254;29;20047;-73
2023/04/10 08:16:15;;;;;;;6.75;4.47;;;11.70;81.70;;;;;;4927026;29;20046;-72
2023/04/10 08:18:47;;;;;;;6.47;4.75;;;11.90;80.70;;;;;;4926612;29;20095;-74
2023/04/10 08:21:27;;;;;;;6.85;5.00;;;12.00;80.70;;;;;;4925409;29;20064;-73
2023/04/10 08:23:57;;;;;;;8.57;5.05;;;12.20;80.50;;;;;;4927232;29;20131;-73
2023/04/10 08:26:27;;;;;;;6.22;4.15;;;12.40;79.70;;;;;;4925880;29;20067;-73
2023/04/10 08:28:59;;;;;;;6.38;4.10;;;12.40;78.60;;;;;;4927043;29;20047;-72
2023/04/10 08:31:37;;;;;;;5.85;3.85;;;12.50;78.50;;;;;;4926831;29;20159;-73
2023/04/10 08:34:06;;;;;;;6.13;4.00;;;12.70;78.50;;;;;;4927303;29;20059;-71
2023/04/10 08:36:55;;;;;;;5.30;3.60;;;12.90;77.30;;;;;;4925463;29;20071;-72
2023/04/10 08:39:26;;;;;;;5.18;3.83;;;12.80;76.30;;;;;;4926546;29;20032;-72
2023/04/10 08:42:02;;;;;;;5.70;3.67;;;12.70;76.60;;;;;;4926970;29;20222;-73
2023/04/10 08:44:32;;;;;;;7.88;4.10;;;12.70;76.80;;;;;;4926384;29;20032;-73
2023/04/10 08:47:07;;;;;;;7.35;6.13;;;12.90;76.90;;;;;;4925891;29;20301;-73
2023/04/10 08:49:55;;;;;;;6.85;4.18;;;12.90;76.30;;;;;;4926725;29;20113;-73
2023/04/10 08:52:24;;;;;;;25.95;12.68;;;13.20;76.20;;;;;;4926426;29;20091;-71
2023/04/10 08:54:58;;;;;;;11.75;7.25;;;13.40;75.40;;;;;;4909497;29;20234;-72
2023/04/10 08:57:42;;;;;;;9.00;5.30;;;13.50;74.60;;;;;;4926423;29;20326;-72
2023/04/10 09:00:08;;;;;;;6.57;4.10;;;13.60;73.20;;;;;;4926065;29;20039;-71
2023/04/10 09:02:53;;;;;;;12.68;7.05;;;13.70;73.40;;;;;;4924081;29;20401;-73
2023/04/10 09:05:43;;;;;;;11.00;6.03;;;13.90;70.40;;;;;;4926193;29;20278;-73
2023/04/10 09:08:13;;;;;;;9.77;5.38;;;13.90;70.90;;;;;;4925258;29;20381;-73
2023/04/10 09:10:42;;;;;;;4.38;2.80;;;13.90;70.10;;;;;;4909527;29;20028;-72
2023/04/10 09:13:17;;;;;;;5.70;2.88;;;13.90;69.60;;;;;;4924616;29;20044;-73
2023/04/10 09:16:01;;;;;;;7.68;3.85;;;13.90;69.60;;;;;;4925275;29;20056;-72
2023/04/10 09:18:47;;;;;;;4.78;3.08;;;14.10;70.70;;;;;;4923904;29;20040;-74
2023/04/10 09:21:31;;;;;;;10.55;4.93;;;14.30;70.50;;;;;;4925922;29;20250;-73
2023/04/10 09:24:11;;;;;;;9.98;4.13;;;14.30;70.10;;;;;;4925248;29;20047;-73
2023/04/10 09:26:37;;;;;;;7.32;3.33;;;14.50;70.50;;;;;;4926463;29;20035;-74
2023/04/10 09:29:15;;;;;;;31.42;10.77;;;14.70;70.30;;;;;;4925114;29;20083;-72
2023/04/10 09:32:12;;;;;;;;;;;;;;;;;;;;;
2023/04/10 09:35:18;;;;;;;7.85;4.28;;;14.50;67.80;;;;;;4926401;29;20056;-72
2023/04/10 09:37:45;;;;;;;6.18;3.35;;;14.70;67.40;;;;;;4909525;29;20058;-74
2023/04/10 09:40:25;;;;;;;4.50;3.00;;;14.80;67.40;;;;;;4909045;29;20119;-72
2023/04/10 09:43:15;;;;;;;4.82;2.50;;;14.70;67.40;;;;;;4925079;29;20060;-73
2023/04/10 09:46:06;;;;;;;4.55;2.40;;;15.00;67.50;;;;;;4926293;29;20031;-72
2023/04/10 09:48:37;;;;;;;4.22;2.53;;;15.20;66.10;;;;;;4924017;29;20148;-74
2023/04/10 09:51:25;;;;;;;3.55;2.35;;;15.30;65.70;;;;;;4924379;29;20048;-73
2023/04/10 09:54:03;;;;;;;4.68;2.55;;;15.30;65.70;;;;;;4925006;29;20040;-74
2023/04/10 09:56:47;;;;;;;3.67;2.20;;;15.50;64.80;;;;;;4925648;29;20311;-73
2023/04/10 09:59:19;;;;;;;2.95;2.10;;;15.50;64.10;;;;;;4924429;29;20381;-74
2023/04/10 10:01:48;;;;;;;3.47;2.17;;;15.50;63.80;;;;;;4923531;29;20125;-74
2023/04/10 10:04:24;;;;;;;2.85;1.80;;;15.60;63.60;;;;;;4926488;29;20357;-73
2023/04/10 10:10:26;;;;;;;3.22;2.05;;;15.70;63.30;;;;;;4887549;29;20043;-75
2023/04/10 10:13:10;;;;;;;3.35;2.03;;;15.70;63.50;;;;;;4886580;29;20070;-70
2023/04/10 10:16:10;;;;;;;4.68;2.05;;;15.80;63.50;;;;;;4871343;29;20083;-71
2023/04/10 10:19:12;;;;;;;3.80;2.30;;;16.00;62.80;;;;;;4886831;29;20231;-71
2023/04/10 10:21:58;;;;;;;3.10;1.92;;;16.20;62.40;;;;;;4872571;29;20116;-73
2023/04/10 10:24:38;;;;;;;3.03;1.75;;;16.30;62.40;;;;;;4885975;29;20033;-73
2023/04/10 10:27:24;;;;;;;3.25;2.05;;;16.60;62.20;;;;;;4886543;29;20040;-71
2023/04/10 10:30:18;;;;;;;3.00;1.70;;;16.90;61.10;;;;;;4886560;29;20056;-71
2023/04/10 10:33:05;;;;;;;3.15;1.90;;;17.10;60.40;;;;;;4870659;29;20343;-73
2023/04/10 10:35:44;;;;;;;2.63;1.85;;;17.10;60.10;;;;;;4870499;29;20040;-74
2023/04/10 10:38:13;;;;;;;3.03;1.80;;;17.30;60.00;;;;;;4870626;29;20033;-74
2023/04/10 10:40:39;;;;;;;3.13;1.73;;;17.60;59.60;;;;;;4855313;29;20041;-75
2023/04/10 10:43:16;;;;;;;2.47;1.58;;;17.80;59.00;;;;;;4886158;29;20119;-74
2023/04/10 10:46:06;;;;;;;2.97;1.77;;;18.00;58.00;;;;;;4895627;29;20071;-73
2023/04/10 10:48:51;;;;;;;2.88;1.92;;;18.40;57.80;;;;;;4927426;29;20399;-73
2023/04/10 10:51:39;;;;;;;3.80;1.55;;;18.60;57.10;;;;;;4928414;29;20083;-72
2023/04/10 10:54:30;;;;;;;2.55;1.38;;;18.90;56.90;;;;;;4928968;29;20036;-72
2023/04/10 10:56:56;;;;;;;2.35;1.25;;;19.00;55.30;;;;;;4928992;29;20238;-73
2023/04/10 10:59:55;;;;;;;2.40;1.48;;;19.10;54.30;;;;;;4928410;29;20040;-72
2023/04/10 11:02:25;;;;;;;2.70;1.60;;;19.20;54.60;;;;;;4928026;29;20253;-72
2023/04/10 11:04:51;;;;;;;2.10;1.08;;;19.30;54.90;;;;;;4928688;29;20036;-73
2023/04/10 11:07:43;;;;;;;2.33;1.40;;;19.20;54.00;;;;;;4928577;29;20059;-72
2023/04/10 11:10:09;;;;;;;2.10;1.20;;;18.90;53.40;;;;;;4927147;29;20043;-73
2023/04/10 11:13:27;;;;;;;2.22;1.50;;;18.80;54.10;;;;;;4926644;29;20099;-71
2023/04/10 11:15:53;;;;;;;;;;;18.90;54.50;;;;;;4928643;29;20040;-72
2023/04/10 11:18:51;;;;;;;1.40;0.75;;;19.00;53.00;;;;;;4928114;29;20189;-72
2023/04/10 11:21:22;;;;;;;2.08;1.17;;;19.40;52.40;;;;;;4926786;29;20043;-72
2023/04/10 11:23:56;;;;;;;2.13;1.20;;;20.20;52.70;;;;;;4928807;29;20357;-72
2023/04/10 11:26:41;;;;;;;1.83;0.90;;;21.00;51.20;;;;;;4927734;29;20298;-73
2023/04/10 11:29:25;;;;;;;2.53;1.13;;;21.80;50.40;;;;;;4911223;29;20040;-73
2023/04/10 11:31:59;;;;;;;2.22;1.20;;;22.40;48.10;;;;;;4928178;29;20310;-73
2023/04/10 11:34:31;;;;;;;2.42;1.00;;;22.90;47.30;;;;;;4927936;29;20353;-73
2023/04/10 11:37:18;;;;;;;1.67;0.98;;;22.90;46.50;;;;;;4928367;29;20099;-74
2023/04/10 11:39:52;;;;;;;2.60;1.00;;;23.00;46.30;;;;;;4928032;29;20315;-73
2023/04/10 11:42:23;;;;;;;1.95;1.00;;;23.70;46.00;;;;;;4926169;29;20229;-73
2023/04/10 11:44:49;;;;;;;1.42;0.82;;;23.30;45.00;;;;;;4928252;29;20063;-74
2023/04/10 11:47:15;;;;;;;1.10;0.60;;;23.80;44.70;;;;;;4928063;29;20051;-72
2023/04/10 11:49:54;;;;;;;2.17;1.10;;;24.60;43.00;;;;;;4927827;29;20075;-72
2023/04/10 11:52:32;;;;;;;1.63;0.88;;;25.30;43.10;;;;;;4927171;29;20044;-74
2023/04/10 11:55:01;;;;;;;2.08;1.00;;;25.60;42.70;;;;;;4927405;29;20195;-73
2023/04/10 11:57:34;;;;;;;2.05;0.80;;;26.00;42.90;;;;;;4924578;29;20040;-72
2023/04/10 12:00:00;;;;;;;1.60;0.88;;;25.80;42.10;;;;;;4927956;29;20337;-73
2023/04/10 12:02:25;;;;;;;1.70;0.75;;;26.40;41.80;;;;;;4926018;29;20048;-75
2023/04/10 12:04:57;;;;;;;1.90;1.00;;;26.70;41.00;;;;;;4926730;29;20048;-74
2023/04/10 12:07:28;;;;;;;1.45;0.80;;;27.20;40.80;;;;;;4923372;29;20051;-74
2023/04/10 12:10:11;;;;;;;1.38;0.68;;;28.20;41.30;;;;;;4927799;29;20035;-73
2023/04/10 12:12:45;;;;;;;1.77;0.50;;;29.40;39.10;;;;;;4926776;29;20046;-75
2023/04/10 12:18:14;;;;;;;0.98;0.40;;;28.80;38.20;;;;;;4927304;29;20043;-74
2023/04/10 12:21:16;;;;;;;0.80;0.40;;;28.90;37.40;;;;;;4927002;29;20040;-74
2023/04/10 12:23:42;;;;;;;1.10;0.30;;;29.00;36.80;;;;;;4890430;29;20064;-72
2023/04/10 12:26:20;;;;;;;0.98;0.50;;;28.40;36.70;;;;;;4890606;29;20360;-72
2023/04/10 12:29:19;;;;;;;0.80;0.40;;;28.60;37.60;;;;;;4906309;29;20350;-74
2023/04/10 12:32:15;;;;;;;0.90;0.40;;;29.10;37.00;;;;;;4906015;29;20060;-73
2023/04/10 12:34:41;;;;;;;1.15;0.50;;;29.50;37.10;;;;;;4890494;29;20048;-73
2023/04/10 12:37:12;;;;;;;1.27;0.57;;;29.50;36.50;;;;;;4906378;29;20040;-73
2023/04/10 12:39:38;;;;;;;1.00;0.30;;;29.40;36.80;;;;;;4905897;29;20052;-74
2023/04/10 12:42:14;;;;;;;0.80;0.38;;;29.30;36.60;;;;;;4906385;29;20087;-73
2023/04/10 12:45:00;;;;;;;1.52;0.40;;;29.60;36.30;;;;;;4890305;29;20165;-74
2023/04/10 12:47:28;;;;;;;0.95;0.40;;;30.10;36.70;;;;;;4905930;29;20048;-73
2023/04/10 12:50:12;;;;;;;0.63;0.30;;;28.10;35.90;;;;;;4906514;29;20051;-71
2023/04/10 12:52:41;;;;;;;1.10;0.40;;;27.60;36.50;;;;;;4905594;29;20067;-73
2023/04/10 12:55:20;;;;;;;1.00;0.50;;;26.90;37.00;;;;;;4906354;29;20040;-73
2023/04/10 12:57:47;;;;;;;1.00;0.50;;;26.70;37.20;;;;;;4890614;29;20043;-72
2023/04/10 13:00:18;;;;;;;2.05;0.60;;;25.70;37.40;;;;;;4914619;29;20215;-72
2023/04/10 13:02:45;;;;;;;1.08;0.50;;;25.40;38.30;;;;;;4923933;29;20091;-71
2023/04/10 13:05:14;;;;;;;1.00;0.40;;;25.70;39.10;;;;;;4926908;29;20032;-73
2023/04/10 13:07:40;;;;;;;1.98;0.45;;;25.50;38.30;;;;;;4925575;29;20056;-73
2023/04/10 13:10:07;;;;;;;1.10;0.50;;;25.20;37.80;;;;;;4927062;29;20107;-73
2023/04/10 13:12:40;;;;;;;1.80;0.50;;;25.00;38.20;;;;;;4926283;29;20047;-72
2023/04/10 13:15:10;;;;;;;2.13;0.60;;;24.90;39.90;;;;;;4925465;29;20051;-72
2023/04/10 13:17:42;;;;;;;1.83;1.00;;;25.20;38.70;;;;;;4925864;29;20099;-73
2023/04/10 13:20:08;;;;;;;1.40;0.70;;;25.20;39.10;;;;;;4926430;29;20393;-73
2023/04/10 13:22:37;;;;;;;1.25;0.68;;;25.00;40.10;;;;;;4925934;29;20195;-74
2023/04/10 13:25:09;;;;;;;1.17;0.57;;;25.80;38.30;;;;;;4926101;29;20047;-74
2023/04/10 13:27:34;;;;;;;1.98;0.75;;;25.40;38.20;;;;;;4925670;29;20039;-73
2023/04/10 13:30:03;;;;;;;1.77;0.70;;;24.90;38.60;;;;;;4926281;29;20225;-73
2023/04/10 13:32:35;;;;;;;1.60;0.75;;;24.50;38.90;;;;;;4925484;29;20095;-74
2023/04/10 13:35:03;;;;;;;1.35;0.63;;;24.70;39.50;;;;;;4926198;29;20040;-73
2023/04/10 13:37:38;;;;;;;1.40;0.55;;;25.10;39.40;;;;;;4925544;29;20060;-74
2023/04/10 13:40:07;;;;;;;1.58;0.63;;;25.60;39.30;;;;;;4926120;29;20032;-73
2023/04/10 13:42:36;;;;;;;1.50;0.70;;;25.60;39.20;;;;;;4927580;29;20036;-72
2023/04/10 13:45:02;;;;;;;1.73;0.60;;;25.90;39.00;;;;;;4927307;29;20175;-72
2023/04/10 13:47:28;;;;;;;1.38;0.60;;;26.40;38.90;;;;;;4926825;29;20040;-74
2023/04/10 13:50:02;;;;;;;1.60;0.90;;;26.50;38.60;;;;;;4926867;29;20032;-72
2023/04/10 13:52:31;;;;;;;1.73;0.73;;;26.70;38.50;;;;;;4924970;29;20040;-73
2023/04/10 13:55:05;;;;;;;1.48;0.80;;;26.90;38.90;;;;;;4924705;29;20028;-73
2023/04/10 13:57:33;;;;;;;4.10;0.95;;;26.90;38.90;;;;;;4908197;29;20039;-73
2023/04/10 13:59:58;;;;;;;2.30;0.90;;;26.00;38.80;;;;;;4925992;29;20020;-72
2023/04/10 14:02:24;;;;;;;1.17;0.75;;;26.50;39.50;;;;;;4925708;29;20482;-75
2023/04/10 14:04:53;;;;;;;1.50;0.80;;;26.70;39.80;;;;;;4925838;29;20039;-74
2023/04/10 14:07:19;;;;;;;2.80;0.75;;;25.80;38.90;;;;;;4926151;29;20032;-73
2023/04/10 14:09:45;;;;;;;1.77;0.90;;;25.40;39.50;;;;;;4925867;29;20071;-72
2023/04/10 14:12:15;;;;;;;1.50;0.88;;;25.40;40.10;;;;;;4925220;29;20028;-73
2023/04/10 14:14:41;;;;;;;2.55;0.90;;;25.40;39.90;;;;;;4925364;29;20024;-73
2023/04/10 14:17:06;;;;;;;1.98;1.02;;;25.10;39.70;;;;;;4925881;29;20040;-73
2023/04/10 14:19:33;;;;;;;1.10;0.60;;;24.80;40.40;;;;;;4928082;29;20247;-74
2023/04/10 14:21:59;;;;;;;1.40;0.70;;;25.10;40.20;;;;;;4929979;29;20079;-75
2023/04/10 14:24:25;;;;;;;1.85;0.82;;;25.00;40.10;;;;;;4929958;29;20059;-71
2023/04/10 14:26:52;;;;;;;2.95;0.80;;;25.30;40.00;;;;;;4929164;29;20036;-72
2023/04/10 14:29:19;;;;;;;1.55;0.75;;;25.40;39.90;;;;;;4928533;29;20052;-74
2023/04/10 14:31:50;;;;;;;1.50;0.80;;;25.40;39.90;;;;;;4926797;29;20276;-75
2023/04/10 14:34:20;;;;;;;1.98;1.05;;;25.30;40.30;;;;;;4928686;29;20259;-74
2023/04/10 14:36:46;;;;;;;1.67;0.80;;;25.20;39.90;;;;;;4928389;29;20198;-75
2023/04/10 14:39:11;;;;;;;2.10;0.80;;;24.80;40.00;;;;;;4929818;29;20096;-75
2023/04/10 14:41:37;;;;;;;1.90;1.00;;;24.70;40.20;;;;;;4929016;29;20083;-75
2023/04/10 14:44:03;;;;;;;1.88;0.77;;;24.40;40.60;;;;;;4929712;29;20079;-73
2023/04/10 14:46:28;;;;;;;1.63;0.80;;;24.40;41.20;;;;;;4906451;29;20330;-74
2023/04/10 14:48:54;;;;;;;2.35;0.82;;;24.40;41.20;;;;;;4909198;29;20214;-73
2023/04/10 14:51:20;;;;;;;1.90;0.80;;;24.80;40.90;;;;;;4909949;29;20048;-73
2023/04/10 14:53:46;;;;;;;1.40;0.70;;;25.10;40.50;;;;;;4916608;29;20055;-74
2023/04/10 14:56:15;;;;;;;2.60;1.00;;;25.30;40.00;;;;;;4929289;29;20043;-73
2023/04/10 14:58:47;;;;;;;1.60;0.90;;;25.60;40.30;;;;;;4928403;29;20318;-74
2023/04/10 15:01:19;;;;;;;1.73;0.90;;;25.60;40.10;;;;;;4928595;29;20047;-73
2023/04/10 15:03:48;;;;;;;2.08;0.93;;;25.60;40.30;;;;;;4927533;29;20050;-73
2023/04/10 15:06:15;;;;;;;1.90;1.00;;;25.80;40.10;;;;;;4928524;29;20028;-73
2023/04/10 15:08:41;;;;;;;1.98;0.80;;;26.70;39.70;;;;;;4928312;29;20020;-73
2023/04/10 15:11:07;;;;;;;1.70;1.00;;;26.80;39.80;;;;;;4928384;29;20047;-72
2023/04/10 15:13:39;;;;;;;1.77;0.90;;;26.30;39.30;;;;;;4926888;29;20041;-73
2023/04/10 15:16:11;;;;;;;1.30;0.70;;;26.10;40.20;;;;;;4927873;29;20095;-72
2023/04/10 15:18:37;;;;;;;2.35;1.02;;;26.60;39.80;;;;;;4927843;29;20043;-74
2023/04/10 15:21:08;;;;;;;1.55;0.90;;;26.90;39.50;;;;;;4928797;29;20028;-74
2023/04/10 15:23:55;;;;;;;2.25;1.23;;;26.90;39.40;;;;;;4927748;29;20036;-73
2023/04/10 15:26:21;;;;;;;1.75;0.90;;;26.50;40.00;;;;;;4928523;29;20036;-73
2023/04/10 15:28:47;;;;;;;1.63;0.88;;;26.30;40.10;;;;;;4927929;29;20031;-74
2023/04/10 15:31:21;;;;;;;1.92;1.08;;;25.80;40.30;;;;;;4927434;29;20036;-74
2023/04/10 15:33:46;;;;;;;4.07;1.10;;;25.70;40.20;;;;;;4926897;29;20222;-73
2023/04/10 15:36:12;;;;;;;1.67;0.80;;;25.30;40.20;;;;;;4927963;29;20035;-72
2023/04/10 15:38:38;;;;;;;2.13;1.00;;;24.80;41.20;;;;;;4927971;29;20036;-74
2023/04/10 15:41:13;;;;;;;1.65;0.90;;;24.30;41.40;;;;;;4928053;29;20044;-73
2023/04/10 15:43:41;;;;;;;1.70;0.93;;;24.00;42.00;;;;;;4927930;29;20047;-73
2023/04/10 15:46:07;;;;;;;2.70;1.00;;;24.00;42.20;;;;;;4928070;29;20016;-73
2023/04/10 15:48:33;;;;;;;2.63;1.08;;;23.60;42.50;;;;;;4927604;29;20032;-74
2023/04/10 15:51:05;;;;;;;2.33;1.00;;;22.80;43.10;;;;;;4928138;29;20329;-73
2023/04/10 15:53:37;;;;;;;1.90;1.00;;;22.50;43.90;;;;;;4926582;29;20065;-75
2023/04/10 15:56:04;;;;;;;1.80;0.93;;;22.30;44.40;;;;;;4928182;29;20040;-74
2023/04/10 15:58:30;;;;;;;2.15;1.05;;;22.20;44.70;;;;;;4927952;29;20276;-73
2023/04/10 16:01:01;;;;;;;1.95;1.15;;;22.10;45.60;;;;;;4927115;29;20039;-75
2023/04/10 16:03:26;;;;;;;2.38;1.20;;;21.80;45.10;;;;;;4927284;29;20079;-72
2023/04/10 16:05:53;;;;;;;1.50;0.85;;;21.60;45.50;;;;;;4927160;29;20044;-72
2023/04/10 16:08:23;;;;;;;2.05;0.93;;;21.40;46.00;;;;;;4927421;29;20028;-74
2023/04/10 16:10:58;;;;;;;2.20;1.00;;;21.20;46.20;;;;;;4926952;29;20103;-74
2023/04/10 16:13:26;;;;;;;1.90;1.02;;;21.00;46.90;;;;;;4927280;29;20044;-73
2023/04/10 16:15:52;;;;;;;2.58;1.20;;;20.90;47.20;;;;;;4925786;29;20593;-73
2023/04/10 16:18:18;;;;;;;2.40;1.13;;;20.80;47.60;;;;;;4927263;29;20036;-74
2023/04/10 16:20:50;;;;;;;2.35;1.02;;;20.40;48.00;;;;;;4926951;29;20060;-72
2023/04/10 16:23:18;;;;;;;2.65;1.10;;;20.30;48.40;;;;;;4927414;29;20352;-74
2023/04/10 16:25:44;;;;;;;3.53;1.20;;;20.10;48.50;;;;;;4926774;29;20195;-73
2023/04/10 16:28:13;;;;;;;2.00;1.20;;;20.10;48.90;;;;;;4927536;29;20031;-73
2023/04/10 16:30:38;;;;;;;;;;;20.00;49.20;;;;;;4927394;29;20318;-72
2023/04/10 16:33:04;;;;;;;2.45;1.02;;;19.90;49.30;;;;;;4927335;29;19913;-72
2023/04/10 16:35:30;;;;;;;2.58;1.25;;;20.00;49.30;;;;;;4927160;29;20079;-73
2023/04/10 16:38:08;;;;;;;2.38;1.33;;;20.00;49.10;;;;;;4926688;29;20130;-73
2023/04/10 16:40:33;;;;;;;2.47;1.10;;;20.10;49.20;;;;;;4926989;29;20211;-73
2023/04/10 16:43:04;;;;;;;2.25;1.08;;;20.30;49.20;;;;;;4925730;29;20115;-73
2023/04/10 16:45:38;;;;;;;1.70;0.90;;;20.20;49.00;;;;;;4927077;29;20036;-73
2023/04/10 16:48:07;;;;;;;2.72;1.30;;;20.20;49.40;;;;;;4926878;29;20088;-73
2023/04/10 16:50:35;;;;;;;3.58;1.30;;;20.20;49.20;;;;;;4926634;29;20032;-73
2023/04/10 16:53:01;;;;;;;2.58;1.33;;;20.10;49.30;;;;;;4926740;29;20051;-72
2023/04/10 16:55:27;;;;;;;2.42;1.13;;;20.00;49.40;;;;;;4926839;29;20186;-73
2023/04/10 16:57:58;;;;;;;2.40;1.30;;;19.90;49.70;;;;;;4926488;29;20036;-72
2023/04/10 17:00:24;;;;;;;3.42;1.85;;;19.70;50.10;;;;;;4926898;29;20079;-73
2023/04/10 17:02:58;;;;;;;3.40;1.63;;;19.60;50.40;;;;;;4925695;29;20234;-73
2023/04/10 17:05:31;;;;;;;3.40;1.77;;;19.50;50.60;;;;;;4925162;29;20044;-73
2023/04/10 17:07:56;;;;;;;2.47;1.35;;;19.40;51.00;;;;;;4926283;29;20032;-74
2023/04/10 17:10:22;;;;;;;2.00;1.10;;;19.20;51.00;;;;;;4926520;29;20238;-74
2023/04/10 17:12:54;;;;;;;2.20;1.33;;;19.10;51.30;;;;;;4926228;29;20265;-73
2023/04/10 17:15:22;;;;;;;2.42;1.30;;;19.00;51.50;;;;;;4925415;29;20058;-73
2023/04/10 17:17:48;;;;;;;2.28;1.23;;;18.80;51.80;;;;;;4925840;29;20036;-73
2023/04/10 17:20:23;;;;;;;2.10;1.10;;;18.70;52.10;;;;;;4926333;29;20015;-73
2023/04/10 17:22:49;;;;;;;3.35;1.70;;;18.50;52.20;;;;;;4925736;29;20066;-74
2023/04/10 17:25:15;;;;;;;2.90;1.33;;;18.50;52.60;;;;;;4926304;29;20210;-72
2023/04/10 17:27:40;;;;;;;2.88;1.45;;;18.30;52.70;;;;;;4924521;29;20218;-73
2023/04/10 17:30:11;;;;;;;4.35;1.85;;;18.20;52.90;;;;;;4925343;29;20024;-74
2023/04/10 17:32:37;;;;;;;3.35;1.70;;;18.20;53.30;;;;;;4925613;29;20088;-73
2023/04/10 17:35:03;;;;;;;2.47;1.33;;;18.00;53.40;;;;;;4926209;29;20035;-73
2023/04/10 17:37:29;;;;;;;3.28;1.60;;;17.90;53.50;;;;;;4926082;29;20035;-73
2023/04/10 17:39:54;;;;;;;3.20;1.60;;;17.90;54.10;;;;;;4924258;29;20040;-74
2023/04/10 17:42:21;;;;;;;3.53;2.00;;;17.80;54.10;;;;;;4926064;29;20047;-73
2023/04/10 17:44:53;;;;;;;4.63;2.10;;;17.70;54.50;;;;;;4925692;29;20099;-74
2023/04/10 17:47:18;;;;;;;5.45;2.10;;;17.60;54.70;;;;;;4926061;29;20096;-73
2023/04/10 17:49:44;;;;;;;3.20;1.77;;;17.60;55.10;;;;;;4925327;29;20047;-73
2023/04/10 17:52:16;;;;;;;4.07;2.10;;;17.50;55.10;;;;;;4925147;29;20082;-73
2023/04/10 17:54:42;;;;;;;3.67;1.77;;;17.40;55.30;;;;;;4928109;29;20032;-74
2023/04/10 17:57:07;;;;;;;3.35;1.92;;;17.30;55.30;;;;;;4930314;29;20393;-71
2023/04/10 17:59:33;;;;;;;3.40;1.83;;;17.30;55.40;;;;;;4929738;29;20272;-74
2023/04/10 18:02:05;;;;;;;3.10;1.63;;;17.20;55.20;;;;;;4928590;29;20051;-74
2023/04/10 18:04:45;;;;;;;2.05;1.17;;;17.20;55.50;;;;;;4892219;29;20041;-75
2023/04/10 18:07:13;;;;;;;2.13;1.30;;;17.10;55.50;;;;;;4892271;29;20041;-73
2023/04/10 18:09:41;;;;;;;3.03;1.00;;;17.10;56.00;;;;;;4893145;29;20255;-73
2023/04/10 18:12:09;;;;;;;4.57;1.30;;;17.00;55.80;;;;;;4881218;29;20040;-73
2023/04/10 18:14:36;;;;;;;2.38;1.20;;;16.90;55.90;;;;;;4894118;29;20045;-73
2023/04/10 18:17:13;;;;;;;1.77;0.90;;;16.90;56.00;;;;;;4895344;29;20036;-73
2023/04/10 18:20:07;;;;;;;1.85;0.95;;;16.80;56.40;;;;;;4893786;29;20137;-74
2023/04/10 18:22:34;;;;;;;1.92;0.80;;;16.80;55.70;;;;;;4878547;29;20104;-73
2023/04/10 18:24:59;;;;;;;1.70;0.88;;;16.70;55.50;;;;;;4891587;29;20255;-72
2023/04/10 18:27:29;;;;;;;1.95;0.82;;;16.70;55.40;;;;;;4891851;29;20029;-74
2023/04/10 18:29:57;;;;;;;1.80;0.85;;;16.70;55.40;;;;;;4891085;29;20045;-75
2023/04/10 18:32:23;;;;;;;2.00;1.05;;;16.60;55.50;;;;;;4891807;29;20047;-74
2023/04/10 18:34:49;;;;;;;2.33;1.10;;;16.60;55.60;;;;;;4890874;29;20045;-74
2023/04/10 18:37:15;;;;;;;2.97;1.38;;;16.50;55.80;;;;;;4890602;29;20041;-73
2023/04/10 18:39:40;;;;;;;2.55;0.90;;;16.40;55.90;;;;;;4891753;29;20029;-74